Terminal Aerodrome Forecast
Issued by NWS

Current Version | Previous Version | Text Only | Print | Product List | Glossary On
Versions: 1 2 3 4 5 6 7 8 9 10 11 12 13 14 15 16 17 18 19 20 21 22 23 24 25 26 27 28 29 30 31 32 33 34
000
FTAK31 PAFA 220256 AAC
TAFAFA
TAF AMD
PAFA 220256Z 2203/2306 04005KT P6SM -RA BKN050 OVC090
     FM220500 04005KT 6SM -RA BR SCT035 BKN050 OVC100
     FM221400 02007KT P6SM VCSH OVC070=

USA.gov is the U.S. government's official web portal to all federal, state and local government web resources and services.